LITTLE EGG INLET NEAR TUCKERTON HADS current weather conditions

sailwx.info

Wind from 101 at 6 knots gusting 13

Air temperature 23.8° C
Dewpoint 21.1° C

Last reported at 2020-Jul-10 10:00 UTC.
Time now 2020-Jul-10 10:40 UTC

Location: N 39°31' W 074°19'.
View on Google Maps.

See reports from other nearby stations

  
Tides and Currents Weather Stations Pressure Air Temp Water Temp Dewpoint Dewpoint Depression Visibility Wind Speed Wind Dir Waves Ship Positions
date/time (UTC)wind fromknots sea level pressurealtimeterstation pressurevisibilityair tempwater tempwave heightnotes
2020-Jul-10 10:00 101 6 gusting 13 23.8
2020-Jul-10 09:54 100 7 gusting 12 23.8
2020-Jul-10 09:48 104 9 gusting 14 23.9
2020-Jul-10 09:42 104 8 gusting 14 24.0
2020-Jul-10 09:36 101 5 gusting 11 24.1
2020-Jul-10 09:30 101 6 gusting 12 24.0
2020-Jul-10 09:24 093 4 gusting 10 23.9
2020-Jul-10 09:18 072 3 gusting 11 23.9
2020-Jul-10 09:12 111 3 gusting 11 23.8
2020-Jul-10 09:06 077 3 gusting 10 23.6
2020-Jul-10 09:00 064 2 gusting 8 23.6
2020-Jul-10 08:54 105 6 gusting 13 23.7
2020-Jul-10 08:48 112 11 gusting 14 23.8
2020-Jul-10 08:42 079 8 gusting 19 24.2
2020-Jul-10 08:36 008 2 gusting 7 24.9
2020-Jul-10 08:30 007 2 gusting 7 24.9
2020-Jul-10 08:24 055 2 gusting 10 24.8
2020-Jul-10 08:18 034 4 gusting 15 24.9
2020-Jul-10 08:12 041 7 gusting 12 24.9
2020-Jul-10 08:06 042 8 gusting 13 24.9
2020-Jul-10 08:00 042 7 gusting 13 24.8
2020-Jul-10 07:54 043 4 gusting 11 24.8
2020-Jul-10 07:48 038 3 gusting 9 24.8
2020-Jul-10 07:42 032 2 gusting 8 24.8
2020-Jul-10 07:36 006 2 gusting 7 24.8
2020-Jul-10 07:30 003 1 gusting 5 24.8
2020-Jul-10 07:24 208 1 gusting 5 24.8
2020-Jul-10 07:18 008 1 gusting 5 24.8
2020-Jul-10 07:12 028 1 gusting 7 24.8
2020-Jul-10 07:06 027 1 gusting 6 24.8
2020-Jul-10 07:00 080 2 gusting 7 24.8
2020-Jul-10 06:54 100 4 gusting 9 24.7
2020-Jul-10 06:48 100 5 gusting 10 24.7
2020-Jul-10 06:42 103 5 gusting 10 24.8
2020-Jul-10 06:36 102 5 gusting 9 24.8
2020-Jul-10 06:30 104 7 gusting 11 24.8
2020-Jul-10 06:24 101 7 gusting 12 24.8
2020-Jul-10 06:18 102 7 gusting 11 24.8
2020-Jul-10 06:12 106 9 gusting 12 24.8
2020-Jul-10 06:06 107 9 gusting 12 24.8
2020-Jul-10 06:00 106 9 gusting 12 24.8
2020-Jul-10 05:54 105 9 gusting 13 24.7
2020-Jul-10 05:48 107 10 gusting 13 24.8
2020-Jul-10 05:42 106 9 gusting 12 24.8
2020-Jul-10 05:36 104 8 gusting 11 24.8
2020-Jul-10 05:30 109 10 gusting 14 24.7
2020-Jul-10 05:24 112 11 gusting 14 24.7
2020-Jul-10 05:18 110 11 gusting 15 24.7
2020-Jul-10 05:12 111 10 gusting 13 24.7
2020-Jul-10 05:06 111 11 gusting 15 24.7
2020-Jul-10 05:00 111 12 gusting 16 24.6
2020-Jul-10 04:54 110 12 gusting 16 24.5
2020-Jul-10 04:48 106 11 gusting 16 24.3
2020-Jul-10 04:42 106 9 gusting 14 24.3
2020-Jul-10 04:36 110 10 gusting 18 25.0
2020-Jul-10 04:30 069 3 gusting 9 25.1
2020-Jul-10 04:24 135 2 gusting 9 25.1
2020-Jul-10 04:18 012 2 gusting 8 25.1
2020-Jul-10 04:12 039 3 gusting 9 25.1
2020-Jul-10 04:06 009 2 gusting 7 25.1
2020-Jul-10 04:00 345 1 gusting 5 25.0
2020-Jul-10 03:54 090 1 gusting 6 25.0
2020-Jul-10 03:48 104 1 gusting 8 25.0
2020-Jul-10 03:42 078 1 gusting 7 25.0
2020-Jul-10 03:36 320 1 gusting 6 25.1
2020-Jul-10 03:30 027 2 gusting 7 25.0
2020-Jul-10 03:24 004 1 gusting 6 25.0
2020-Jul-10 03:18 025 1 gusting 7 25.0
2020-Jul-10 03:12 201 1 gusting 6 25.1
2020-Jul-10 03:06 178 2 gusting 10 25.1
2020-Jul-10 03:00 078 1 gusting 5 25.0
2020-Jul-10 02:54 029 1 gusting 5 25.1
2020-Jul-10 02:48 336 1 gusting 5 25.1
2020-Jul-10 02:42 005 1 gusting 7 25.1
2020-Jul-10 02:36 328 1 gusting 5 25.1
2020-Jul-10 02:30 256 1 gusting 6 25.1
2020-Jul-10 02:24 341 1 gusting 5 25.1
2020-Jul-10 02:18 028 1 gusting 5 25.1
2020-Jul-10 02:12 25.1
2020-Jul-10 02:06 127 2 gusting 7 25.1
2020-Jul-10 02:00 099 2 gusting 8 25.1
2020-Jul-10 01:54 075 2 gusting 7 25.2
2020-Jul-10 01:48 265 1 gusting 6 25.2
2020-Jul-10 01:42 336 1 gusting 4 25.2
2020-Jul-10 01:36 343 1 gusting 5 25.2
2020-Jul-10 01:30 025 1 gusting 5 25.3
2020-Jul-10 01:24 087 1 gusting 5 25.3
2020-Jul-10 01:18 035 1 gusting 6 25.4
2020-Jul-10 01:12 050 2 gusting 8 25.4
2020-Jul-10 01:06 135 2 gusting 7 25.4
2020-Jul-10 01:00 061 2 gusting 7 25.5
2020-Jul-10 00:54 339 1 gusting 5 25.6
2020-Jul-10 00:48 004 1 gusting 5 25.6
2020-Jul-10 00:42 347 1 gusting 5 25.6
2020-Jul-10 00:36 348 1 gusting 5 25.6
2020-Jul-10 00:30 351 1 gusting 5 25.6
2020-Jul-10 00:24 051 1 gusting 7 25.6
2020-Jul-10 00:18 310 1 gusting 6 25.6
2020-Jul-10 00:12 114 1 gusting 6 25.7
2020-Jul-10 00:06 293 2 gusting 8 25.7
2020-Jul-10 00:00 050 2 gusting 8 25.8
2020-Jul-09 23:54 063 2 gusting 8 25.9
2020-Jul-09 23:48 109 3 gusting 8 25.9
2020-Jul-09 23:42 108 4 gusting 9 25.9
2020-Jul-09 23:36 102 3 gusting 9 26.1
2020-Jul-09 23:30 104 3 gusting 10 26.1
2020-Jul-09 23:24 089 2 gusting 8 26.2
2020-Jul-09 23:18 060 2 gusting 8 26.3
2020-Jul-09 23:12 070 2 gusting 9 26.4
2020-Jul-09 23:06 077 2 gusting 8 26.4
2020-Jul-09 23:00 087 3 gusting 8 26.4
2020-Jul-09 22:54 055 2 gusting 8 26.5
2020-Jul-09 22:48 090 2 gusting 9 26.5
2020-Jul-09 22:42 085 3 gusting 9 26.5
2020-Jul-09 22:36 061 3 gusting 8 26.5
2020-Jul-09 22:30 089 3 gusting 10 26.5
2020-Jul-09 22:24 101 2 gusting 7 26.6
2020-Jul-09 22:18 096 3 gusting 7 26.5
2020-Jul-09 22:12 097 3 gusting 10 26.4
2020-Jul-09 22:06 073 4 gusting 8 26.4
2020-Jul-09 22:00 107 5 gusting 9 26.4
2020-Jul-09 21:54 106 6 gusting 11 26.2
2020-Jul-09 21:48 104 5 gusting 9 26.1
2020-Jul-09 21:42 106 8 gusting 11 26.1
2020-Jul-09 21:36 104 7 gusting 10 26.3
2020-Jul-09 21:30 103 5 gusting 9 26.2
2020-Jul-09 21:24 107 7 gusting 9 26.2
2020-Jul-09 21:18 105 7 gusting 10 26.2
2020-Jul-09 21:12 107 7 gusting 11 26.3
2020-Jul-09 21:06 103 6 gusting 10 26.4
2020-Jul-09 21:00 105 6 gusting 9 26.4
2020-Jul-09 20:54 106 6 gusting 10 26.3
2020-Jul-09 20:48 107 7 gusting 10 26.3
2020-Jul-09 20:42 106 6 gusting 10 26.4
2020-Jul-09 20:36 105 6 gusting 9 26.4
2020-Jul-09 20:30 106 6 gusting 9 26.5
2020-Jul-09 20:24 108 6 gusting 10 26.6
2020-Jul-09 20:18 105 6 gusting 9 26.6
2020-Jul-09 20:12 106 5 gusting 8 26.6
2020-Jul-09 20:06 120 4 gusting 9 26.6
2020-Jul-09 20:00 103 4 gusting 8 26.6
2020-Jul-09 19:54 103 5 gusting 10 26.5
2020-Jul-09 19:48 108 6 gusting 9 26.3
2020-Jul-09 19:42 109 7 gusting 9 26.1
2020-Jul-09 19:36 109 7 gusting 9 26.0
2020-Jul-09 19:30 108 6 gusting 9 26.1
2020-Jul-09 19:24 109 6 gusting 8 26.0
2020-Jul-09 19:18 110 6 gusting 9 26.0
2020-Jul-09 19:12 109 6 gusting 9 26.0
2020-Jul-09 19:06 111 7 gusting 9 25.8
2020-Jul-09 19:00 111 6 gusting 9 25.8
2020-Jul-09 18:54 111 7 gusting 9 25.8
2020-Jul-09 18:48 108 7 gusting 9 26.0
2020-Jul-09 18:42 106 6 gusting 10 26.2
2020-Jul-09 18:36 107 6 gusting 10 26.1
2020-Jul-09 18:30 108 7 gusting 9 25.9
2020-Jul-09 18:24 107 7 gusting 10 26.1
2020-Jul-09 18:18 107 7 gusting 10 26.3
2020-Jul-09 18:12 101 6 gusting 10 26.1
2020-Jul-09 18:06 106 7 gusting 10 26.3
2020-Jul-09 18:00 106 6 gusting 10 26.4
2020-Jul-09 17:54 105 6 gusting 9 26.3
2020-Jul-09 17:48 103 5 gusting 10 26.3
2020-Jul-09 17:42 103 5 gusting 9 26.2
2020-Jul-09 17:36 099 5 gusting 9 26.1
2020-Jul-09 17:30 105 6 gusting 9 26.4
2020-Jul-09 17:24 101 4 gusting 9 26.3
2020-Jul-09 17:18 106 5 gusting 9 26.1
2020-Jul-09 17:12 104 5 gusting 9 26.7
2020-Jul-09 17:06 078 3 gusting 8 26.6
2020-Jul-09 17:00 104 5 gusting 10 26.5
2020-Jul-09 16:54 101 4 gusting 9 26.5
2020-Jul-09 16:48 099 4 gusting 8 26.5
2020-Jul-09 16:42 097 4 gusting 8 26.4
2020-Jul-09 16:36 099 4 gusting 8 26.3
2020-Jul-09 16:30 100 4 gusting 9 26.3
2020-Jul-09 16:24 119 4 gusting 8 26.2
2020-Jul-09 16:18 104 5 gusting 9 26.2
2020-Jul-09 16:12 105 4 gusting 7 26.1
2020-Jul-09 16:06 104 4 gusting 8 25.9
2020-Jul-09 16:00 106 4 gusting 8 25.9
2020-Jul-09 15:54 105 6 gusting 8 25.8
2020-Jul-09 15:48 100 4 gusting 8 25.8
2020-Jul-09 15:42 107 6 gusting 8 25.3
2020-Jul-09 15:36 109 6 gusting 9 25.2
2020-Jul-09 15:30 112 7 gusting 9 25.2
2020-Jul-09 15:24 110 6 gusting 8 25.3
2020-Jul-09 15:18 105 5 gusting 8 25.7
2020-Jul-09 15:12 104 5 gusting 8 25.8
2020-Jul-09 15:06 105 5 gusting 8 25.9
2020-Jul-09 15:00 105 4 gusting 8 25.9
2020-Jul-09 14:54 105 5 gusting 9 25.8
2020-Jul-09 14:48 104 5 gusting 8 26.0
2020-Jul-09 14:42 104 5 gusting 9 26.2
2020-Jul-09 14:36 101 4 gusting 8 26.1
2020-Jul-09 14:30 084 3 gusting 9 25.8
2020-Jul-09 14:24 101 4 gusting 8 25.8
2020-Jul-09 14:18 103 4 gusting 8 25.7
2020-Jul-09 14:12 104 5 gusting 8 25.8
2020-Jul-09 14:06 105 5 gusting 9 25.8
2020-Jul-09 14:00 105 6 gusting 8 26.1
2020-Jul-09 13:54 105 5 gusting 7 26.4
2020-Jul-09 13:48 081 3 gusting 7 26.7
2020-Jul-09 13:42 054 3 gusting 7 26.3
2020-Jul-09 13:36 050 3 gusting 7 26.5
2020-Jul-09 13:30 081 3 gusting 9 26.3
2020-Jul-09 13:24 065 3 gusting 9 26.3
2020-Jul-09 13:18 075 3 gusting 6 26.2
2020-Jul-09 13:12 060 2 gusting 7 26.3
2020-Jul-09 13:06 063 2 gusting 6 25.9
2020-Jul-09 13:00 100 3 gusting 7 25.6
2020-Jul-09 12:54 104 4 gusting 6 25.7
2020-Jul-09 12:48 100 3 gusting 6 25.6
2020-Jul-09 12:42 098 3 gusting 6 25.5
2020-Jul-09 12:36 105 3 gusting 6 25.5
2020-Jul-09 12:30 102 3 gusting 6 25.3
2020-Jul-09 12:24 101 2 gusting 5 25.3
2020-Jul-09 12:18 100 2 gusting 5 25.2
2020-Jul-09 12:12 103 4 gusting 5 25.1
2020-Jul-09 12:06 108 3 gusting 5 25.2
2020-Jul-09 12:00 102 3 gusting 5 25.1
2020-Jul-09 11:54 115 3 gusting 5 25.1
2020-Jul-09 11:48 070 1 gusting 4 25.2
2020-Jul-09 11:42 086 1 gusting 4 25.2
2020-Jul-09 11:36 061 1 gusting 3 25.0
2020-Jul-09 11:30 070 1 gusting 3 24.9
2020-Jul-09 11:24 099 2 gusting 4 24.7
2020-Jul-09 11:18 071 1 gusting 3 24.6
2020-Jul-09 11:12 040 1 gusting 3 24.5
2020-Jul-09 11:06 051 2 gusting 4 24.4
2020-Jul-09 11:00 047 1 gusting 3 24.3
2020-Jul-09 10:54 042 2 gusting 3 24.2
2020-Jul-09 10:48 041 2 gusting 3 24.1
2020-Jul-09 10:42 038 2 gusting 3 23.9
2020-Jul-09 10:36 032 1 gusting 3 23.8
2020-Jul-09 10:30 024 1 gusting 2 23.7
2020-Jul-09 10:24 031 2 gusting 3 23.6
2020-Jul-09 10:18 030 2 gusting 3 23.5
2020-Jul-09 10:12 035 2 gusting 4 23.5
2020-Jul-09 10:06 030 3 gusting 3 23.6
2020-Jul-09 10:00 032 2 gusting 3 23.4
2020-Jul-09 09:54 026 2 gusting 3 23.4
2020-Jul-09 09:48 019 2 gusting 3 23.3
2020-Jul-09 09:42 018 2 gusting 3 23.3
2020-Jul-09 09:36 016 2 gusting 3 23.5
2020-Jul-09 09:30 023 2 gusting 3 23.5
2020-Jul-09 09:24 030 1 gusting 2 23.6
2020-Jul-09 09:18 093 0 gusting 1 24.0
2020-Jul-09 09:12 120 0 gusting 1 23.9
2020-Jul-09 09:06 121 1 gusting 2 24.0
2020-Jul-09 09:00 113 1 gusting 3 24.0
2020-Jul-09 08:54 102 1 gusting 2 24.1
2020-Jul-09 08:48 151 2 gusting 3 24.3
2020-Jul-09 08:42 156 2 gusting 4 24.3
2020-Jul-09 08:36 161 3 gusting 4 24.3
2020-Jul-09 08:30 156 3 gusting 5 24.3
2020-Jul-09 08:24 154 3 gusting 5 24.2
2020-Jul-09 08:18 153 4 gusting 5 24.2
2020-Jul-09 08:12 153 4 gusting 5 24.2
2020-Jul-09 08:06 157 4 gusting 5 24.1
2020-Jul-09 08:00 161 5 gusting 7 24.1
2020-Jul-09 07:54 160 6 gusting 7 24.1
2020-Jul-09 07:48 160 5 gusting 6 24.1
2020-Jul-09 07:42 160 5 gusting 6 24.0
2020-Jul-09 07:36 162 5 gusting 6 24.0
2020-Jul-09 07:30 161 5 gusting 5 24.0
2020-Jul-09 07:24 158 5 gusting 7 23.9
2020-Jul-09 07:18 161 5 gusting 7 23.9
2020-Jul-09 07:12 164 6 gusting 6 23.7
2020-Jul-09 07:06 164 5 gusting 6 23.7
2020-Jul-09 07:00 167 2 gusting 4 23.4
2020-Jul-09 06:54 149 1 gusting 2 23.4
2020-Jul-09 06:48 124 1 gusting 2 23.3
2020-Jul-09 06:42 131 1 gusting 2 23.3
2020-Jul-09 06:36 146 1 gusting 2 23.4
2020-Jul-09 06:30 136 2 gusting 3 23.5
2020-Jul-09 06:24 140 3 gusting 3 23.6
2020-Jul-09 06:18 140 3 gusting 4 23.6
2020-Jul-09 06:12 129 3 gusting 4 23.6
2020-Jul-09 06:06 129 3 gusting 5 24.0
2020-Jul-09 06:00 145 4 gusting 5 24.2
2020-Jul-09 05:54 150 4 gusting 7 24.2
2020-Jul-09 05:48 154 5 gusting 7 24.2
2020-Jul-09 05:42 156 6 gusting 7 24.2
2020-Jul-09 05:36 157 7 gusting 9 24.2
2020-Jul-09 05:30 159 8 gusting 10 24.2
2020-Jul-09 05:24 158 8 gusting 10 24.1
2020-Jul-09 05:18 159 8 gusting 10 24.1
2020-Jul-09 05:12 160 9 gusting 11 24.0
2020-Jul-09 05:06 160 9 gusting 11 23.9
2020-Jul-09 05:00 157 7 gusting 9 23.7
2020-Jul-09 04:54 149 6 gusting 7 23.3
2020-Jul-09 04:48 143 6 gusting 7 23.6
2020-Jul-09 04:42 141 5 gusting 6 23.9
2020-Jul-09 04:36 143 5 gusting 5 24.0
2020-Jul-09 04:30 148 5 gusting 5 24.1
2020-Jul-09 04:24 146 4 gusting 5 24.0
2020-Jul-09 04:18 145 3 gusting 4 23.9
2020-Jul-09 04:12 144 4 gusting 5 23.8
2020-Jul-09 04:06 132 2 gusting 3 24.0
2020-Jul-09 04:00 139 3 gusting 5 24.3
2020-Jul-09 03:54 154 4 gusting 5 24.4
2020-Jul-09 03:48 156 5 gusting 6 24.4
2020-Jul-09 03:42 158 6 gusting 7 24.4
2020-Jul-09 03:36 158 6 gusting 8 24.4
2020-Jul-09 03:30 158 7 gusting 8 24.4
2020-Jul-09 03:24 161 6 gusting 9 24.4
2020-Jul-09 03:18 161 6 gusting 8 24.4
2020-Jul-09 03:12 160 7 gusting 10 24.5
2020-Jul-09 03:06 163 8 gusting 11 24.5
2020-Jul-09 03:00 163 8 gusting 10 24.5
2020-Jul-09 02:54 163 8 gusting 10 24.5
2020-Jul-09 02:48 163 9 gusting 11 24.6
2020-Jul-09 02:42 164 9 gusting 11 24.6
2020-Jul-09 02:36 165 8 gusting 10 24.6
2020-Jul-09 02:30 166 9 gusting 12 24.6
2020-Jul-09 02:24 166 9 gusting 11 24.6
2020-Jul-09 02:18 164 9 gusting 11 24.6
2020-Jul-09 02:12 160 8 gusting 11 24.6
2020-Jul-09 02:06 158 8 gusting 10 24.7
2020-Jul-09 02:00 158 7 gusting 9 24.7
2020-Jul-09 01:54 157 8 gusting 10 24.8
2020-Jul-09 01:48 162 9 gusting 11 24.8
2020-Jul-09 01:42 164 9 gusting 11 24.8
2020-Jul-09 01:36 166 7 gusting 10 24.9
2020-Jul-09 01:30 163 8 gusting 11 24.9
2020-Jul-09 01:24 162 8 gusting 11 24.9
2020-Jul-09 01:18 164 9 gusting 11 24.9
2020-Jul-09 01:12 163 9 gusting 12 24.9
2020-Jul-09 01:06 161 8 gusting 11 24.9
2020-Jul-09 01:00 160 9 gusting 11 24.9
2020-Jul-09 00:54 159 9 gusting 11 24.9
2020-Jul-09 00:48 158 7 gusting 9 24.9
2020-Jul-09 00:42 156 7 gusting 9 24.9
2020-Jul-09 00:36 156 8 gusting 9 24.9
2020-Jul-09 00:30 157 8 gusting 10 25.0
2020-Jul-09 00:24 155 9 gusting 11 25.0
2020-Jul-09 00:18 157 7 gusting 10 25.1
2020-Jul-09 00:12 155 8 gusting 10 25.1
2020-Jul-09 00:06 154 8 gusting 10 25.1
2020-Jul-09 00:00 154 7 gusting 9 25.2
2020-Jul-08 23:54 155 8 gusting 10 25.2
2020-Jul-08 23:48 151 8 gusting 11 25.2
2020-Jul-08 23:42 150 8 gusting 10 25.3
2020-Jul-08 23:36 152 9 gusting 11 25.3
2020-Jul-08 23:30 153 10 gusting 13 25.3
2020-Jul-08 23:24 154 10 gusting 13 25.3
2020-Jul-08 23:18 151 10 gusting 13 25.4
2020-Jul-08 23:12 153 10 gusting 12 25.4
2020-Jul-08 23:06 158 9 gusting 11 25.6
2020-Jul-08 23:00 158 10 gusting 13 25.6
2020-Jul-08 22:54 161 9 gusting 12 25.6
2020-Jul-08 22:48 156 10 gusting 13 25.8
2020-Jul-08 22:42 162 10 gusting 13 25.7
2020-Jul-08 22:36 158 9 gusting 12 25.9
2020-Jul-08 22:30 159 9 gusting 14 26.0
2020-Jul-08 22:24 155 9 gusting 12 26.0
2020-Jul-08 22:18 162 9 gusting 13 26.1
2020-Jul-08 22:12 161 10 gusting 13 26.0
2020-Jul-08 22:06 157 11 gusting 13 25.9
2020-Jul-08 22:00 157 10 gusting 13 25.9
2020-Jul-08 21:54 155 10 gusting 13 25.9
2020-Jul-08 21:48 160 10 gusting 12 25.9
2020-Jul-08 21:42 156 9 gusting 12 25.8
2020-Jul-08 21:36 151 9 gusting 12 26.0
2020-Jul-08 21:30 153 9 gusting 12 25.9
2020-Jul-08 21:24 152 10 gusting 13 26.0
2020-Jul-08 21:18 158 11 gusting 13 25.8
2020-Jul-08 21:12 151 10 gusting 13 25.9
2020-Jul-08 21:06 146 10 gusting 12 25.9
2020-Jul-08 21:00 153 10 gusting 12 25.6
2020-Jul-08 20:54 151 10 gusting 13 25.4
2020-Jul-08 20:48 145 10 gusting 12 25.6
2020-Jul-08 20:42 150 9 gusting 13 25.5
2020-Jul-08 20:36 145 10 gusting 13 25.4
2020-Jul-08 20:30 137 11 gusting 13 25.3
2020-Jul-08 20:24 135 11 gusting 13 25.3
2020-Jul-08 20:18 131 10 gusting 11 25.3
2020-Jul-08 20:12 131 9 gusting 11 25.4
2020-Jul-08 20:06 128 9 gusting 11 25.4
2020-Jul-08 20:00 130 9 gusting 12 25.4
2020-Jul-08 19:54 131 9 gusting 11 25.4
2020-Jul-08 19:48 136 8 gusting 12 25.5
2020-Jul-08 19:42 142 8 gusting 11 25.5
2020-Jul-08 19:36 136 9 gusting 11 25.5
2020-Jul-08 19:30 137 8 gusting 10 25.8
2020-Jul-08 19:24 149 9 gusting 13 26.1
2020-Jul-08 19:18 155 10 gusting 14 26.1
2020-Jul-08 19:12 165 11 gusting 15 26.4
2020-Jul-08 19:06 165 12 gusting 14 26.3
2020-Jul-08 19:00 168 11 gusting 18 26.3
2020-Jul-08 18:54 169 10 gusting 14 26.2
2020-Jul-08 18:48 170 11 gusting 16 26.2
2020-Jul-08 18:42 165 12 gusting 16 26.0
2020-Jul-08 18:36 166 12 gusting 16 26.0
2020-Jul-08 18:30 172 14 gusting 17 26.0
2020-Jul-08 18:24 175 14 gusting 19 26.0
2020-Jul-08 18:18 172 14 gusting 18 26.1
2020-Jul-08 18:12 160 14 gusting 16 26.1
2020-Jul-08 18:06 166 12 gusting 15 26.2
2020-Jul-08 18:00 164 13 gusting 16 26.1
2020-Jul-08 17:54 173 12 gusting 16 26.2
2020-Jul-08 17:48 174 12 gusting 16 26.1
2020-Jul-08 17:42 176 12 gusting 14 25.9
2020-Jul-08 17:36 166 12 gusting 15 26.0
2020-Jul-08 17:30 168 12 gusting 15 26.0
2020-Jul-08 17:24 177 12 gusting 14 26.0
2020-Jul-08 17:18 172 11 gusting 15 25.9
2020-Jul-08 17:12 175 12 gusting 14 26.0
2020-Jul-08 17:06 175 11 gusting 16 26.0
2020-Jul-08 17:00 174 12 gusting 14 25.9
2020-Jul-08 16:54 177 11 gusting 15 25.9
2020-Jul-08 16:48 173 12 gusting 15 25.8
2020-Jul-08 16:42 175 13 gusting 15 25.7
2020-Jul-08 16:36 175 13 gusting 15 25.5
2020-Jul-08 16:30 173 11 gusting 15 25.5
2020-Jul-08 16:24 164 12 gusting 15 25.5
2020-Jul-08 16:18 167 12 gusting 15 25.4
2020-Jul-08 16:12 163 13 gusting 15 25.4
2020-Jul-08 16:06 162 13 gusting 17 25.4
2020-Jul-08 16:00 164 13 gusting 16 25.4
2020-Jul-08 15:54 166 14 gusting 16 25.5
2020-Jul-08 15:48 166 14 gusting 17 25.4
2020-Jul-08 15:42 170 13 gusting 16 25.3
2020-Jul-08 15:36 165 12 gusting 15 25.2
2020-Jul-08 15:30 157 12 gusting 15 25.2
2020-Jul-08 15:24 160 12 gusting 15 25.2
2020-Jul-08 15:18 158 12 gusting 17 25.1
2020-Jul-08 15:12 155 13 gusting 16 25.1
2020-Jul-08 15:06 157 13 gusting 16 25.1
2020-Jul-08 15:00 158 12 gusting 16 25.1
2020-Jul-08 14:54 156 11 gusting 14 24.9
2020-Jul-08 14:48 152 9 gusting 13 24.7
2020-Jul-08 14:42 148 10 gusting 13 24.7
2020-Jul-08 14:36 145 11 gusting 14 24.7
2020-Jul-08 14:30 151 11 gusting 14 24.8
2020-Jul-08 14:24 151 11 gusting 15 24.8
2020-Jul-08 14:18 149 11 gusting 13 24.6
2020-Jul-08 14:12 145 11 gusting 14 24.6
2020-Jul-08 14:06 147 11 gusting 15 24.6
2020-Jul-08 14:00 146 10 gusting 13 24.5
2020-Jul-08 13:54 140 10 gusting 12 24.4
2020-Jul-08 13:48 140 10 gusting 12 24.4
2020-Jul-08 13:42 137 9 gusting 11 24.4
2020-Jul-08 13:36 138 9 gusting 11 24.4
2020-Jul-08 13:30 136 9 gusting 11 24.4
2020-Jul-08 13:24 138 9 gusting 11 24.5
2020-Jul-08 13:18 139 9 gusting 13 24.5
2020-Jul-08 13:12 139 9 gusting 11 24.5
2020-Jul-08 13:06 139 8 gusting 10 24.6
2020-Jul-08 13:00 140 8 gusting 10 24.6
2020-Jul-08 12:54 139 8 gusting 10 24.7
2020-Jul-08 12:48 142 7 gusting 10 24.9
2020-Jul-08 12:42 151 7 gusting 11 25.0
2020-Jul-08 12:36 156 8 gusting 11 24.8
2020-Jul-08 12:30 156 7 gusting 10 24.8
2020-Jul-08 12:24 157 8 gusting 11 24.6
2020-Jul-08 12:18 153 8 gusting 10 24.8
2020-Jul-08 12:12 155 8 gusting 11 24.7
2020-Jul-08 12:06 155 8 gusting 11 24.6
2020-Jul-08 12:00 155 9 gusting 11 24.7
2020-Jul-08 11:54 156 9 gusting 11 24.6
2020-Jul-08 11:48 157 8 gusting 10 24.6
2020-Jul-08 11:42 158 8 gusting 10 24.5
2020-Jul-08 11:36 159 7 gusting 10 24.5
2020-Jul-08 11:30 161 7 gusting 9 24.5
2020-Jul-08 11:24 158 7 gusting 9 24.5
2020-Jul-08 11:18 156 7 gusting 9 24.4
2020-Jul-08 11:12 157 6 gusting 8 24.3
2020-Jul-08 11:06 155 6 gusting 7 24.2
2020-Jul-08 11:00 156 6 gusting 8 24.2
2020-Jul-08 10:54 154 6 gusting 8 24.2
2020-Jul-08 10:48 154 6 gusting 8 24.0
2020-Jul-08 10:42 155 6 gusting 9 24.0
2020-Jul-08 10:36 154 6 gusting 8 23.9
2020-Jul-08 10:30 154 7 gusting 8 23.9